Terminal Aerodrome Forecast
Issued by NWS Portland, OR

Home | Current Version | Previous Version | Text Only | Print | Product List | Glossary On
Versions: 1 2 3 4 5 6 7 8 9 10 11 12 13 14 15 16 17 18 19 20 21 22 23 24 25 26
000
FTUS46 KPQR 200911 AAA
TAFHIO
TAF AMD
KHIO 200911Z 2009/2106 20005KT 4SM -RA BR BKN006 OVC060
     FM201100 19005KT 3SM -RA BR OVC006
     FM201700 24007KT 6SM -RA BR SCT015 OVC030
     FM210100 24005KT P6SM OVC025=

USA.gov is the U.S. government's official web portal to all federal, state and local government web resources and services.